Hutchinson, MN (55350)

9:08 AM CDT on August 31, 2015 (GMT -0500)
Hutchinson High School | | Change Station
CLOSE
Current Station
Personal Weather Station
Location: Hutchinson, MN
Elevation: 1060 ft
Nearby Weather Stations

Elev 1060 ft 44.88 °N, 94.39 °W | Updated 3 minutes ago

Overcast
Overcast
67.6 °F
Feels Like 67.6 °F
N
4.0
Wind Variable Wind from South
Gusts 6.0 mph

Today
High -- | Low -- °F
--% Chance of Precip.
Yesterday
High -- | Low -- °F
Precip. -- in
6:38 AM 7:56 PM
Waning Gibbous, 95% visible
Pressure 29.91 in
Visibility 4.0 miles
Clouds Overcast 500 ft
Dew Point 66 °F
Humidity 95%
Rainfall 0.00 in
Snow Depth Not available.
UV 0 out of 12
Pollen 10.40 out of 12
Air Quality Not available.
Flu Activity Not available.
METAR KHCD 311312Z AUTO 16005KT 4SM BR OVC005 19/19 A2991 RMK AO2 T01880185
Pressure 29.91 in
Visibility 4.0 miles
Clouds Overcast 500 ft
Dew Point 66 °F
Humidity 95%
Rainfall 0.00 in
Snow Depth Not available.
UV 0 out of 12
Pollen 10.40 out of 12
Air Quality Not available.
Flu Activity Not available.
METAR KHCD 311312Z AUTO 16005KT 4SM BR OVC005 19/19 A2991 RMK AO2 T01880185

10-Day Weather Forecast

×

Almanac

Astronomy

Aug. 31, 2015 Rise Set
Actual Time
Civil Twilight
Nautical Twilight
Astronomical Twilight
Moon
Length of Visible Light
Length of Day
Tomorrow will be .
, % of the Moon is Illuminated

Today's Extremes

State Highs State Lows

Community

WunderPhotos

Upload Photos

1,851,243 photos uploaded!

WunderBlogs® & News

Nearby

Air Quality

  Air Quality AQ Index Pollutant
Not available.

Snow Depth

Station Depth Elevation

Earthquake Activity

City Distance Mag. Time & Date
Minimum magnitude displayed is 2.5.

Coastal Water Temperatures

Place Temperature

Stations

Nearby Weather Stations

Station Location Temp. Windchill Dew Point Humidity Wind Precip. Elev Updated Type